Anna Noli — IZEL — position and weather

sailwx.info

Track history (hours):
 
Tides and Currents Weather Stations Pressure Air Temp Water Temp Dewpoint Dewpoint Depression Visibility Wind Speed Wind Dir Waves Ship Positions

Anna Noli

Last reported at 2015-Mar-30 05:31 UTC. Time now 2015-Mar-30 05:49 UTC.
Position N 44°18' E 008°29'.

Length 32 m.

Type: Tug. MMSI: 247046500.

Date/timePositionNaut miles runAvg speedWind from/ knotsBaromVisibWave heightAir tempDewpointWater temp
2015-Mar-30 05:31N 44°18' E 008°29'0 0.0
2015-Mar-30 04:31N 44°18' E 008°29'0 0.0
2015-Mar-30 03:31N 44°18' E 008°29'0 0.0
2015-Mar-30 02:31N 44°18' E 008°29'0 0.0
2015-Mar-30 01:31N 44°18' E 008°29'0 0.0
2015-Mar-30 00:31N 44°18' E 008°29'0 0.0
2015-Mar-29 23:31N 44°18' E 008°29'0 0.0
2015-Mar-29 22:31N 44°18' E 008°29'0 0.0
2015-Mar-29 21:31N 44°18' E 008°29'0 0.0
2015-Mar-29 20:31N 44°18' E 008°29'0 0.0
2015-Mar-29 19:31N 44°18' E 008°29'0 0.0
2015-Mar-29 18:31N 44°18' E 008°29'0 0.0
2015-Mar-29 17:31N 44°18' E 008°29'0 0.0
2015-Mar-29 16:31N 44°18' E 008°29'0 0.0
2015-Mar-29 15:31N 44°18' E 008°29'0 0.0
2015-Mar-29 14:31N 44°18' E 008°29'0 0.0
2015-Mar-29 13:31N 44°18' E 008°29'0 0.0
2015-Mar-29 12:31N 44°18' E 008°29'0 0.0
2015-Mar-29 11:31N 44°18' E 008°29'0 0.0
2015-Mar-29 10:31N 44°18' E 008°29'0 0.0
2015-Mar-29 09:25N 44°18' E 008°29'0 0.0
2015-Mar-29 08:31N 44°18' E 008°29'0 0.0
2015-Mar-29 07:31N 44°18' E 008°29'0 0.0
2015-Mar-29 06:31N 44°18' E 008°29'0 0.0
2015-Mar-29 05:28N 44°18' E 008°29'0 0.0
2015-Mar-29 04:31N 44°18' E 008°29'0 0.0
2015-Mar-29 03:31N 44°18' E 008°29'0 0.0
2015-Mar-29 02:31N 44°18' E 008°29'0 0.0
2015-Mar-29 01:31N 44°18' E 008°29'0 0.0
2015-Mar-29 00:31N 44°18' E 008°29'0 0.0
2015-Mar-28 23:31N 44°18' E 008°29'0 0.0
2015-Mar-28 22:31N 44°18' E 008°29'0 0.0
2015-Mar-28 21:31N 44°18' E 008°29'0 0.0
2015-Mar-28 20:31N 44°18' E 008°29'0 0.0
2015-Mar-28 19:31N 44°18' E 008°29'0 0.0
2015-Mar-28 18:31N 44°18' E 008°29'0 0.0
2015-Mar-28 17:31N 44°18' E 008°29'0 0.0
2015-Mar-28 16:31N 44°18' E 008°29'0 0.0
2015-Mar-28 15:31N 44°18' E 008°29'0 0.0
2015-Mar-28 14:31N 44°18' E 008°29'0 0.0
2015-Mar-28 13:31N 44°18' E 008°29'2 2.2
2015-Mar-28 12:33N 44°17' E 008°28'0 0.3
2015-Mar-28 11:30N 44°17' E 008°28'1 1.1
2015-Mar-28 10:33N 44°17' E 008°29'1 1.2
2015-Mar-28 09:30N 44°18' E 008°29'0 0.0
2015-Mar-28 08:24N 44°18' E 008°29'0 0.0
2015-Mar-28 07:30N 44°18' E 008°29'1 0.7
2015-Mar-28 06:31N 44°19' E 008°30'1 0.7
2015-Mar-28 05:31N 44°18' E 008°29'0 0.0
2015-Mar-28 04:31N 44°18' E 008°29'0 0.0
2015-Mar-28 03:31N 44°18' E 008°29'0 0.0
2015-Mar-28 02:31N 44°18' E 008°29'0 0.0
2015-Mar-28 01:31N 44°18' E 008°29'0 0.0
2015-Mar-28 00:32N 44°18' E 008°29'0 0.0
2015-Mar-27 23:31N 44°18' E 008°29'0 0.0
2015-Mar-27 22:31N 44°18' E 008°29'0 0.0
2015-Mar-27 21:31N 44°18' E 008°29'0 0.0
2015-Mar-27 20:31N 44°18' E 008°29'0 0.0
2015-Mar-27 19:31N 44°18' E 008°29'0 0.4
2015-Mar-27 18:31N 44°19' E 008°30'0 0.4
2015-Mar-27 17:32N 44°18' E 008°29'1 1.2
2015-Mar-27 16:33N 44°19' E 008°31'3 2.8
2015-Mar-27 15:30N 44°17' E 008°28'0 0.4
2015-Mar-27 14:31N 44°16' E 008°28'2 2.3
2015-Mar-27 13:29N 44°18' E 008°29'0 0.0
2015-Mar-27 12:23N 44°18' E 008°29'0 0.0
2015-Mar-27 11:32N 44°18' E 008°29'0 0.0
2015-Mar-27 10:32N 44°18' E 008°29'0 0.0
2015-Mar-27 09:29N 44°18' E 008°29'0 0.0
2015-Mar-27 08:29N 44°18' E 008°29'0 0.0
2015-Mar-27 07:29N 44°18' E 008°29'0 0.0
2015-Mar-27 06:29N 44°18' E 008°29'0 0.0
2015-Mar-27 05:29N 44°18' E 008°29'0 0.0
2015-Mar-27 04:29N 44°18' E 008°29'0 0.0
2015-Mar-27 03:29N 44°18' E 008°29'0 0.0
2015-Mar-27 02:29N 44°18' E 008°29'0 0.0
2015-Mar-27 01:29N 44°18' E 008°29'0 0.0
2015-Mar-27 00:29N 44°18' E 008°29'0 0.0
2015-Mar-26 23:29N 44°18' E 008°29'0 0.0
2015-Mar-26 22:29N 44°18' E 008°29'0 0.0
2015-Mar-26 21:29N 44°18' E 008°29'0 0.0
2015-Mar-26 20:29N 44°18' E 008°29'0 0.0
2015-Mar-26 19:29N 44°18' E 008°29'0 0.0
2015-Mar-26 18:29N 44°18' E 008°29'0 0.0
2015-Mar-26 17:29N 44°18' E 008°29'0 0.0
2015-Mar-26 16:29N 44°18' E 008°29'0 0.0
2015-Mar-26 15:29N 44°18' E 008°29'0 0.0
2015-Mar-26 14:32N 44°18' E 008°29'0 0.0
2015-Mar-26 13:32N 44°18' E 008°29'0 0.0
2015-Mar-26 12:29N 44°18' E 008°29'0 0.0
2015-Mar-26 11:29N 44°18' E 008°29'0 0.0
2015-Mar-26 10:29N 44°18' E 008°29'0 0.0
2015-Mar-26 09:29N 44°18' E 008°29'0 0.0
2015-Mar-26 08:29N 44°18' E 008°29'0 0.0
2015-Mar-26 07:29N 44°18' E 008°29'0 0.0
2015-Mar-26 06:29N 44°18' E 008°29'0 0.0
2015-Mar-26 05:29N 44°18' E 008°29'0 0.0
2015-Mar-26 04:29N 44°18' E 008°29'0 0.0
2015-Mar-26 03:29N 44°18' E 008°29'0 0.0
2015-Mar-26 02:29N 44°18' E 008°29'0 0.0
2015-Mar-26 01:29N 44°18' E 008°29'0 0.0
2015-Mar-26 00:29N 44°18' E 008°29'0 0.0
2015-Mar-25 23:29N 44°18' E 008°29'0 0.0
2015-Mar-25 22:29N 44°18' E 008°29'0 0.0
2015-Mar-25 21:29N 44°18' E 008°29'0 0.0
2015-Mar-25 20:29N 44°18' E 008°29'0 0.0
2015-Mar-25 19:29N 44°18' E 008°29'0 0.0
2015-Mar-25 18:29N 44°18' E 008°29'0 0.0
2015-Mar-25 17:29N 44°18' E 008°29'0 0.0
2015-Mar-25 16:29N 44°18' E 008°29'0 0.0
2015-Mar-25 15:29N 44°18' E 008°29'0 0.0
2015-Mar-25 14:29N 44°18' E 008°29'0 0.0
2015-Mar-25 13:29N 44°18' E 008°29'0 0.0
2015-Mar-25 12:29N 44°18' E 008°29'0 0.0
2015-Mar-25 11:29N 44°18' E 008°29'0 0.0
2015-Mar-25 10:29N 44°18' E 008°29'0 0.0
2015-Mar-25 09:29N 44°18' E 008°29'0 0.0
2015-Mar-25 08:29N 44°18' E 008°29'0 0.0
2015-Mar-25 07:29N 44°18' E 008°29'0 0.0
2015-Mar-25 06:29N 44°18' E 008°29'0 0.0
2015-Mar-25 05:29N 44°18' E 008°29'0 0.0
2015-Mar-25 04:29N 44°18' E 008°29'0 0.0
2015-Mar-25 03:29N 44°18' E 008°29'0 0.0
2015-Mar-25 02:29N 44°18' E 008°29'0 0.0
2015-Mar-25 01:29N 44°18' E 008°29'0 0.0
2015-Mar-25 00:29N 44°18' E 008°29'0 0.0
2015-Mar-24 23:29N 44°18' E 008°29'0 0.0
2015-Mar-24 22:29N 44°18' E 008°29'0 0.0
2015-Mar-24 21:29N 44°18' E 008°29'0 0.0
2015-Mar-24 20:29N 44°18' E 008°29'0 0.0
2015-Mar-24 19:29N 44°18' E 008°29'0 0.0
2015-Mar-24 18:29N 44°18' E 008°29'0 0.0
2015-Mar-24 17:29N 44°18' E 008°29'0 0.0
2015-Mar-24 16:29N 44°18' E 008°29'0 0.0
2015-Mar-24 15:29N 44°18' E 008°29'0 0.0
2015-Mar-24 14:29N 44°18' E 008°29'0 0.0
2015-Mar-24 13:29N 44°18' E 008°29'0 0.0
2015-Mar-24 12:29N 44°18' E 008°29'0 0.0
2015-Mar-24 11:29N 44°18' E 008°29'0 0.0
2015-Mar-24 10:29N 44°18' E 008°29'0 0.0
2015-Mar-24 09:29N 44°18' E 008°29'0 0.0
2015-Mar-24 08:29N 44°18' E 008°29'0 0.0
2015-Mar-24 06:29N 44°18' E 008°29'0 0.0
2015-Mar-24 05:23N 44°18' E 008°29'0 0.0
2015-Mar-24 04:23N 44°18' E 008°29'0 0.0
2015-Mar-24 03:23N 44°18' E 008°29'0 0.0
2015-Mar-24 02:17N 44°18' E 008°29'0 0.0
2015-Mar-24 01:29N 44°18' E 008°29'0 0.0
2015-Mar-24 00:11N 44°18' E 008°29'0 0.0
2015-Mar-23 23:29N 44°18' E 008°29'0 0.0
2015-Mar-23 22:29N 44°18' E 008°29'0 0.0
2015-Mar-23 20:29N 44°18' E 008°29'0 0.0
2015-Mar-23 18:29N 44°18' E 008°29'0 0.0
2015-Mar-23 17:29N 44°18' E 008°29'0 0.0
2015-Mar-23 16:29N 44°18' E 008°29'0 0.0
2015-Mar-23 14:29N 44°18' E 008°29'0 0.0
2015-Mar-23 13:17N 44°18' E 008°29'0 0.0
2015-Mar-23 12:23N 44°18' E 008°29'0 0.0
2015-Mar-23 11:29N 44°18' E 008°29'0 0.0
2015-Mar-23 10:29N 44°18' E 008°29'0 0.0
2015-Mar-23 09:17N 44°18' E 008°29'0 0.0
2015-Mar-23 08:29N 44°18' E 008°29'0 0.0
2015-Mar-23 07:05N 44°18' E 008°29'0 0.0
2015-Mar-23 06:11N 44°18' E 008°29'0 0.0
2015-Mar-23 05:29N 44°18' E 008°29'2 0.1
2015-Mar-22 09:27N 44°17' E 008°28'2 2.2
2015-Mar-22 08:29N 44°18' E 008°29'0 0.0
2015-Mar-22 07:05N 44°18' E 008°29'0 0.0
2015-Mar-22 06:23N 44°18' E 008°29'0 0.0
2015-Mar-22 05:29N 44°18' E 008°29'0 0.0
2015-Mar-22 04:29N 44°18' E 008°29'0 0.0
2015-Mar-22 03:29N 44°18' E 008°29'0 0.0
2015-Mar-22 02:29N 44°18' E 008°29'0 0.0
2015-Mar-22 01:29N 44°18' E 008°29'0 0.0
2015-Mar-22 00:23N 44°18' E 008°29'0 0.0
2015-Mar-21 23:11N 44°18' E 008°29'0 0.0
2015-Mar-21 22:23N 44°18' E 008°29'0 0.0
2015-Mar-21 21:29N 44°18' E 008°29'0 0.0
2015-Mar-21 20:23N 44°18' E 008°29'0 0.0
2015-Mar-21 19:23N 44°18' E 008°29'0 0.4
2015-Mar-21 18:29N 44°19' E 008°30'1 0.6
2015-Mar-21 17:33N 44°19' E 008°30'1 0.8
2015-Mar-21 16:27N 44°18' E 008°29'0 0.0
2015-Mar-21 14:27N 44°18' E 008°29'0 0.0
2015-Mar-21 13:27N 44°18' E 008°29'0 0.0
2015-Mar-21 12:33N 44°18' E 008°29'0 0.0
2015-Mar-21 11:33N 44°18' E 008°29'0 0.0
2015-Mar-21 10:15N 44°18' E 008°29'0 0.5
2015-Mar-21 09:32N 44°19' E 008°30'3 2.1
2015-Mar-21 08:17N 44°17' E 008°28'2 2.7
2015-Mar-21 07:33N 44°18' E 008°30'1 0.5
2015-Mar-21 06:29N 44°18' E 008°29'0 0.0
2015-Mar-21 05:29N 44°18' E 008°29'0 0.0
2015-Mar-21 04:29N 44°18' E 008°29'0 0.0
2015-Mar-21 03:29N 44°18' E 008°29'0 0.0
2015-Mar-21 02:29N 44°18' E 008°29'0 0.0
2015-Mar-21 01:29N 44°18' E 008°29'0 0.0
2015-Mar-21 00:29N 44°18' E 008°29'0 0.0
2015-Mar-20 23:29N 44°18' E 008°29'0 0.0
2015-Mar-20 22:29N 44°18' E 008°29'0 0.0
2015-Mar-20 21:29N 44°18' E 008°29'0 0.0
2015-Mar-20 20:29N 44°18' E 008°29'0 0.0
2015-Mar-20 19:29N 44°18' E 008°29'0 0.4
2015-Mar-20 18:32N 44°19' E 008°30'0 0.2
2015-Mar-20 17:33N 44°19' E 008°30'1 0.5
2015-Mar-20 16:28N 44°18' E 008°29'0 0.0
2015-Mar-20 15:28N 44°18' E 008°29'2 1.7
2015-Mar-20 14:34N 44°19' E 008°31'2 1.5
2015-Mar-20 13:33N 44°18' E 008°29'0 0.0
2015-Mar-20 12:33N 44°18' E 008°29'0 0.0
2015-Mar-20 11:33N 44°18' E 008°29'0 0.0
2015-Mar-20 10:33N 44°18' E 008°29'0 0.0
2015-Mar-20 09:33N 44°18' E 008°29'0 0.0
2015-Mar-20 08:33N 44°18' E 008°29'0 0.0
2015-Mar-20 07:33N 44°18' E 008°29'0 0.0
2015-Mar-20 06:27N 44°18' E 008°29'  
Track history (hours):
 
Tides and Currents Weather Stations Pressure Air Temp Water Temp Dewpoint Dewpoint Depression Visibility Wind Speed Wind Dir Waves Ship Positions

Anna Noli

Last reported at 2015-Mar-30 05:31 UTC. Time now 2015-Mar-30 05:49 UTC.
Position N 44°18' E 008°29'.

Length 32 m.

Type: Tug. MMSI: 247046500.

Date/timePositionNaut miles runAvg speedWind from/ knotsBaromVisibWave heightAir tempDewpointWater temp
2015-Mar-30 05:31N 44°18' E 008°29'0 0.0
2015-Mar-30 04:31N 44°18' E 008°29'0 0.0
2015-Mar-30 03:31N 44°18' E 008°29'0 0.0
2015-Mar-30 02:31N 44°18' E 008°29'0 0.0
2015-Mar-30 01:31N 44°18' E 008°29'0 0.0
2015-Mar-30 00:31N 44°18' E 008°29'0 0.0
2015-Mar-29 23:31N 44°18' E 008°29'0 0.0
2015-Mar-29 22:31N 44°18' E 008°29'0 0.0
2015-Mar-29 21:31N 44°18' E 008°29'0 0.0
2015-Mar-29 20:31N 44°18' E 008°29'0 0.0
2015-Mar-29 19:31N 44°18' E 008°29'0 0.0
2015-Mar-29 18:31N 44°18' E 008°29'0 0.0
2015-Mar-29 17:31N 44°18' E 008°29'0 0.0
2015-Mar-29 16:31N 44°18' E 008°29'0 0.0
2015-Mar-29 15:31N 44°18' E 008°29'0 0.0
2015-Mar-29 14:31N 44°18' E 008°29'0 0.0
2015-Mar-29 13:31N 44°18' E 008°29'0 0.0
2015-Mar-29 12:31N 44°18' E 008°29'0 0.0
2015-Mar-29 11:31N 44°18' E 008°29'0 0.0
2015-Mar-29 10:31N 44°18' E 008°29'0 0.0
2015-Mar-29 09:25N 44°18' E 008°29'0 0.0
2015-Mar-29 08:31N 44°18' E 008°29'0 0.0
2015-Mar-29 07:31N 44°18' E 008°29'0 0.0
2015-Mar-29 06:31N 44°18' E 008°29'0 0.0
2015-Mar-29 05:28N 44°18' E 008°29'0 0.0
2015-Mar-29 04:31N 44°18' E 008°29'0 0.0
2015-Mar-29 03:31N 44°18' E 008°29'0 0.0
2015-Mar-29 02:31N 44°18' E 008°29'0 0.0
2015-Mar-29 01:31N 44°18' E 008°29'0 0.0
2015-Mar-29 00:31N 44°18' E 008°29'0 0.0
2015-Mar-28 23:31N 44°18' E 008°29'0 0.0
2015-Mar-28 22:31N 44°18' E 008°29'0 0.0
2015-Mar-28 21:31N 44°18' E 008°29'0 0.0
2015-Mar-28 20:31N 44°18' E 008°29'0 0.0
2015-Mar-28 19:31N 44°18' E 008°29'0 0.0
2015-Mar-28 18:31N 44°18' E 008°29'0 0.0
2015-Mar-28 17:31N 44°18' E 008°29'0 0.0
2015-Mar-28 16:31N 44°18' E 008°29'0 0.0
2015-Mar-28 15:31N 44°18' E 008°29'0 0.0
2015-Mar-28 14:31N 44°18' E 008°29'0 0.0
2015-Mar-28 13:31N 44°18' E 008°29'2 2.2
2015-Mar-28 12:33N 44°17' E 008°28'0 0.3
2015-Mar-28 11:30N 44°17' E 008°28'1 1.1
2015-Mar-28 10:33N 44°17' E 008°29'1 1.2
2015-Mar-28 09:30N 44°18' E 008°29'0 0.0
2015-Mar-28 08:24N 44°18' E 008°29'0 0.0
2015-Mar-28 07:30N 44°18' E 008°29'1 0.7
2015-Mar-28 06:31N 44°19' E 008°30'1 0.7
2015-Mar-28 05:31N 44°18' E 008°29'0 0.0
2015-Mar-28 04:31N 44°18' E 008°29'0 0.0
2015-Mar-28 03:31N 44°18' E 008°29'0 0.0
2015-Mar-28 02:31N 44°18' E 008°29'0 0.0
2015-Mar-28 01:31N 44°18' E 008°29'0 0.0
2015-Mar-28 00:32N 44°18' E 008°29'0 0.0
2015-Mar-27 23:31N 44°18' E 008°29'0 0.0
2015-Mar-27 22:31N 44°18' E 008°29'0 0.0
2015-Mar-27 21:31N 44°18' E 008°29'0 0.0
2015-Mar-27 20:31N 44°18' E 008°29'0 0.0
2015-Mar-27 19:31N 44°18' E 008°29'0 0.4
2015-Mar-27 18:31N 44°19' E 008°30'0 0.4
2015-Mar-27 17:32N 44°18' E 008°29'1 1.2
2015-Mar-27 16:33N 44°19' E 008°31'3 2.8
2015-Mar-27 15:30N 44°17' E 008°28'0 0.4
2015-Mar-27 14:31N 44°16' E 008°28'2 2.3
2015-Mar-27 13:29N 44°18' E 008°29'0 0.0
2015-Mar-27 12:23N 44°18' E 008°29'0 0.0
2015-Mar-27 11:32N 44°18' E 008°29'0 0.0
2015-Mar-27 10:32N 44°18' E 008°29'0 0.0
2015-Mar-27 09:29N 44°18' E 008°29'0 0.0
2015-Mar-27 08:29N 44°18' E 008°29'0 0.0
2015-Mar-27 07:29N 44°18' E 008°29'0 0.0
2015-Mar-27 06:29N 44°18' E 008°29'0 0.0
2015-Mar-27 05:29N 44°18' E 008°29'0 0.0
2015-Mar-27 04:29N 44°18' E 008°29'0 0.0
2015-Mar-27 03:29N 44°18' E 008°29'0 0.0
2015-Mar-27 02:29N 44°18' E 008°29'0 0.0
2015-Mar-27 01:29N 44°18' E 008°29'0 0.0
2015-Mar-27 00:29N 44°18' E 008°29'0 0.0
2015-Mar-26 23:29N 44°18' E 008°29'0 0.0
2015-Mar-26 22:29N 44°18' E 008°29'0 0.0
2015-Mar-26 21:29N 44°18' E 008°29'0 0.0
2015-Mar-26 20:29N 44°18' E 008°29'0 0.0
2015-Mar-26 19:29N 44°18' E 008°29'0 0.0
2015-Mar-26 18:29N 44°18' E 008°29'0 0.0
2015-Mar-26 17:29N 44°18' E 008°29'0 0.0
2015-Mar-26 16:29N 44°18' E 008°29'0 0.0
2015-Mar-26 15:29N 44°18' E 008°29'0 0.0
2015-Mar-26 14:32N 44°18' E 008°29'0 0.0
2015-Mar-26 13:32N 44°18' E 008°29'0 0.0
2015-Mar-26 12:29N 44°18' E 008°29'0 0.0
2015-Mar-26 11:29N 44°18' E 008°29'0 0.0
2015-Mar-26 10:29N 44°18' E 008°29'0 0.0
2015-Mar-26 09:29N 44°18' E 008°29'0 0.0
2015-Mar-26 08:29N 44°18' E 008°29'0 0.0
2015-Mar-26 07:29N 44°18' E 008°29'0 0.0
2015-Mar-26 06:29N 44°18' E 008°29'0 0.0
2015-Mar-26 05:29N 44°18' E 008°29'0 0.0
2015-Mar-26 04:29N 44°18' E 008°29'0 0.0
2015-Mar-26 03:29N 44°18' E 008°29'0 0.0
2015-Mar-26 02:29N 44°18' E 008°29'0 0.0
2015-Mar-26 01:29N 44°18' E 008°29'0 0.0
2015-Mar-26 00:29N 44°18' E 008°29'0 0.0
2015-Mar-25 23:29N 44°18' E 008°29'0 0.0
2015-Mar-25 22:29N 44°18' E 008°29'0 0.0
2015-Mar-25 21:29N 44°18' E 008°29'0 0.0
2015-Mar-25 20:29N 44°18' E 008°29'0 0.0
2015-Mar-25 19:29N 44°18' E 008°29'0 0.0
2015-Mar-25 18:29N 44°18' E 008°29'0 0.0
2015-Mar-25 17:29N 44°18' E 008°29'0 0.0
2015-Mar-25 16:29N 44°18' E 008°29'0 0.0
2015-Mar-25 15:29N 44°18' E 008°29'0 0.0
2015-Mar-25 14:29N 44°18' E 008°29'0 0.0
2015-Mar-25 13:29N 44°18' E 008°29'0 0.0
2015-Mar-25 12:29N 44°18' E 008°29'0 0.0
2015-Mar-25 11:29N 44°18' E 008°29'0 0.0
2015-Mar-25 10:29N 44°18' E 008°29'0 0.0
2015-Mar-25 09:29N 44°18' E 008°29'0 0.0
2015-Mar-25 08:29N 44°18' E 008°29'0 0.0
2015-Mar-25 07:29N 44°18' E 008°29'0 0.0
2015-Mar-25 06:29N 44°18' E 008°29'0 0.0
2015-Mar-25 05:29N 44°18' E 008°29'0 0.0
2015-Mar-25 04:29N 44°18' E 008°29'0 0.0
2015-Mar-25 03:29N 44°18' E 008°29'0 0.0
2015-Mar-25 02:29N 44°18' E 008°29'0 0.0
2015-Mar-25 01:29N 44°18' E 008°29'0 0.0
2015-Mar-25 00:29N 44°18' E 008°29'0 0.0
2015-Mar-24 23:29N 44°18' E 008°29'0 0.0
2015-Mar-24 22:29N 44°18' E 008°29'0 0.0
2015-Mar-24 21:29N 44°18' E 008°29'0 0.0
2015-Mar-24 20:29N 44°18' E 008°29'0 0.0
2015-Mar-24 19:29N 44°18' E 008°29'0 0.0
2015-Mar-24 18:29N 44°18' E 008°29'0 0.0
2015-Mar-24 17:29N 44°18' E 008°29'0 0.0
2015-Mar-24 16:29N 44°18' E 008°29'0 0.0
2015-Mar-24 15:29N 44°18' E 008°29'0 0.0
2015-Mar-24 14:29N 44°18' E 008°29'0 0.0
2015-Mar-24 13:29N 44°18' E 008°29'0 0.0
2015-Mar-24 12:29N 44°18' E 008°29'0 0.0
2015-Mar-24 11:29N 44°18' E 008°29'0 0.0
2015-Mar-24 10:29N 44°18' E 008°29'0 0.0
2015-Mar-24 09:29N 44°18' E 008°29'0 0.0
2015-Mar-24 08:29N 44°18' E 008°29'0 0.0
2015-Mar-24 06:29N 44°18' E 008°29'0 0.0
2015-Mar-24 05:23N 44°18' E 008°29'0 0.0
2015-Mar-24 04:23N 44°18' E 008°29'0 0.0
2015-Mar-24 03:23N 44°18' E 008°29'0 0.0
2015-Mar-24 02:17N 44°18' E 008°29'0 0.0
2015-Mar-24 01:29N 44°18' E 008°29'0 0.0
2015-Mar-24 00:11N 44°18' E 008°29'0 0.0
2015-Mar-23 23:29N 44°18' E 008°29'0 0.0
2015-Mar-23 22:29N 44°18' E 008°29'0 0.0
2015-Mar-23 20:29N 44°18' E 008°29'0 0.0
2015-Mar-23 18:29N 44°18' E 008°29'0 0.0
2015-Mar-23 17:29N 44°18' E 008°29'0 0.0
2015-Mar-23 16:29N 44°18' E 008°29'0 0.0
2015-Mar-23 14:29N 44°18' E 008°29'0 0.0
2015-Mar-23 13:17N 44°18' E 008°29'0 0.0
2015-Mar-23 12:23N 44°18' E 008°29'0 0.0
2015-Mar-23 11:29N 44°18' E 008°29'0 0.0
2015-Mar-23 10:29N 44°18' E 008°29'0 0.0
2015-Mar-23 09:17N 44°18' E 008°29'0 0.0
2015-Mar-23 08:29N 44°18' E 008°29'0 0.0
2015-Mar-23 07:05N 44°18' E 008°29'0 0.0
2015-Mar-23 06:11N 44°18' E 008°29'0 0.0
2015-Mar-23 05:29N 44°18' E 008°29'2 0.1
2015-Mar-22 09:27N 44°17' E 008°28'2 2.2
2015-Mar-22 08:29N 44°18' E 008°29'0 0.0
2015-Mar-22 07:05N 44°18' E 008°29'0 0.0
2015-Mar-22 06:23N 44°18' E 008°29'0 0.0
2015-Mar-22 05:29N 44°18' E 008°29'0 0.0
2015-Mar-22 04:29N 44°18' E 008°29'0 0.0
2015-Mar-22 03:29N 44°18' E 008°29'0 0.0
2015-Mar-22 02:29N 44°18' E 008°29'0 0.0
2015-Mar-22 01:29N 44°18' E 008°29'0 0.0
2015-Mar-22 00:23N 44°18' E 008°29'0 0.0
2015-Mar-21 23:11N 44°18' E 008°29'0 0.0
2015-Mar-21 22:23N 44°18' E 008°29'0 0.0
2015-Mar-21 21:29N 44°18' E 008°29'0 0.0
2015-Mar-21 20:23N 44°18' E 008°29'0 0.0
2015-Mar-21 19:23N 44°18' E 008°29'0 0.4
2015-Mar-21 18:29N 44°19' E 008°30'1 0.6
2015-Mar-21 17:33N 44°19' E 008°30'1 0.8
2015-Mar-21 16:27N 44°18' E 008°29'0 0.0
2015-Mar-21 14:27N 44°18' E 008°29'0 0.0
2015-Mar-21 13:27N 44°18' E 008°29'0 0.0
2015-Mar-21 12:33N 44°18' E 008°29'0 0.0
2015-Mar-21 11:33N 44°18' E 008°29'0 0.0
2015-Mar-21 10:15N 44°18' E 008°29'0 0.5
2015-Mar-21 09:32N 44°19' E 008°30'3 2.1
2015-Mar-21 08:17N 44°17' E 008°28'2 2.7
2015-Mar-21 07:33N 44°18' E 008°30'1 0.5
2015-Mar-21 06:29N 44°18' E 008°29'0 0.0
2015-Mar-21 05:29N 44°18' E 008°29'0 0.0
2015-Mar-21 04:29N 44°18' E 008°29'0 0.0
2015-Mar-21 03:29N 44°18' E 008°29'0 0.0
2015-Mar-21 02:29N 44°18' E 008°29'0 0.0
2015-Mar-21 01:29N 44°18' E 008°29'0 0.0
2015-Mar-21 00:29N 44°18' E 008°29'0 0.0
2015-Mar-20 23:29N 44°18' E 008°29'0 0.0
2015-Mar-20 22:29N 44°18' E 008°29'0 0.0
2015-Mar-20 21:29N 44°18' E 008°29'0 0.0
2015-Mar-20 20:29N 44°18' E 008°29'0 0.0
2015-Mar-20 19:29N 44°18' E 008°29'0 0.4
2015-Mar-20 18:32N 44°19' E 008°30'0 0.2
2015-Mar-20 17:33N 44°19' E 008°30'1 0.5
2015-Mar-20 16:28N 44°18' E 008°29'0 0.0
2015-Mar-20 15:28N 44°18' E 008°29'2 1.7
2015-Mar-20 14:34N 44°19' E 008°31'2 1.5
2015-Mar-20 13:33N 44°18' E 008°29'0 0.0
2015-Mar-20 12:33N 44°18' E 008°29'0 0.0
2015-Mar-20 11:33N 44°18' E 008°29'0 0.0
2015-Mar-20 10:33N 44°18' E 008°29'0 0.0
2015-Mar-20 09:33N 44°18' E 008°29'0 0.0
2015-Mar-20 08:33N 44°18' E 008°29'0 0.0
2015-Mar-20 07:33N 44°18' E 008°29'0 0.0
2015-Mar-20 06:27N 44°18' E 008°29'  

Dump ship's entire track history